Time;durP1;ratioP1;P1;durP2;ratioP2;P2;SDS_P1;SDS_P2;PMS_P1;PMS_P2;Temp;Humidity;BMP_temperature;BMP_pressure;BME280_temperature;BME280_humidity;BME280_pressure;Samples;Min_cycle;Max_cycle;Signal;HPM_P1;HPM_P2
2022/10/06 00:00:51;;;;;;;2.80;2.50;;;18.20;1.00;;;;;;5049538;28;20692;-53
2022/10/06 00:03:17;;;;;;;4.70;3.70;;;18.20;1.00;;;;;;5051387;28;20449;-55
2022/10/06 00:05:43;;;;;;;5.50;2.90;;;18.20;1.00;;;;;;5048227;28;20885;-54
2022/10/06 00:08:10;;;;;;;3.00;2.80;;;18.30;1.00;;;;;;5049099;28;20519;-54
2022/10/06 00:10:35;;;;;;;3.50;2.73;;;18.40;1.00;;;;;;5049283;28;20581;-52
2022/10/06 00:13:01;;;;;;;3.07;2.77;;;18.40;1.00;;;;;;5049885;28;20428;-54
2022/10/06 00:15:30;;;;;;;3.87;2.93;;;18.30;1.00;;;;;;5048394;28;20179;-56
2022/10/06 00:17:56;;;;;;;3.87;2.80;;;18.40;1.00;;;;;;5050149;28;20687;-56
2022/10/06 00:20:24;;;;;;;3.13;2.83;;;18.50;1.00;;;;;;5050525;28;21311;-51
2022/10/06 00:22:49;;;;;;;3.00;2.60;;;18.50;1.00;;;;;;5047767;28;20418;-55
2022/10/06 00:25:19;;;;;;;2.60;2.40;;;18.60;1.00;;;;;;5048509;28;20422;-53
2022/10/06 00:27:46;;;;;;;14.03;3.27;;;17.80;1.00;;;;;;5051942;28;20545;-54
2022/10/06 00:30:18;;;;;;;3.07;2.57;;;18.60;1.00;;;;;;5047015;28;20483;-54
2022/10/06 00:32:56;;;;;;;3.30;3.00;;;18.60;1.00;;;;;;5049949;28;20453;-53
2022/10/06 00:35:24;;;;;;;4.63;3.00;;;18.60;1.00;;;;;;5050708;28;20860;-54
2022/10/06 00:37:49;;;;;;;3.00;2.70;;;18.60;1.00;;;;;;5050865;28;20447;-54
2022/10/06 00:40:15;;;;;;;6.07;2.73;;;18.60;1.00;;;;;;5048729;28;20467;-54
2022/10/06 00:43:30;;;;;;;3.10;2.73;;;18.60;1.00;;;;;;5047932;28;20336;-53
2022/10/06 00:45:55;;;;;;;4.13;2.80;;;18.60;1.00;;;;;;5036498;28;20747;-55
2022/10/06 00:48:24;;;;;;;4.40;2.57;;;18.70;1.00;;;;;;5048171;28;20438;-52
2022/10/06 00:50:52;;;;;;;3.27;2.37;;;18.70;1.00;;;;;;5048567;28;20192;-53
2022/10/06 00:53:19;;;;;;;3.37;2.90;;;18.70;1.00;;;;;;5050635;28;20429;-54
2022/10/06 00:55:44;;;;;;;9.10;3.00;;;18.70;1.00;;;;;;5045471;28;20476;-53
2022/10/06 00:58:11;;;;;;;2.67;2.30;;;18.70;1.00;;;;;;5046102;28;20523;-53
2022/10/06 01:00:37;;;;;;;4.23;2.83;;;18.70;1.00;;;;;;5047269;28;20195;-54
2022/10/06 01:03:08;;;;;;;4.60;3.20;;;18.70;1.00;;;;;;5046824;28;20432;-55
2022/10/06 01:05:42;;;;;;;2.77;2.57;;;18.70;1.00;;;;;;5047730;28;20503;-53
2022/10/06 01:08:08;;;;;;;4.47;3.07;;;18.70;1.00;;;;;;5048330;28;20530;-53
2022/10/06 01:10:34;;;;;;;4.33;2.60;;;18.70;1.00;;;;;;5048568;28;20975;-55
2022/10/06 01:13:00;;;;;;;3.13;2.33;;;18.70;1.00;;;;;;5049841;28;20208;-55
2022/10/06 01:15:27;;;;;;;4.70;2.83;;;18.70;1.00;;;;;;5048809;28;20189;-53
2022/10/06 01:18:14;;;;;;;12.47;3.87;;;18.70;1.00;;;;;;5059485;28;20817;-55
2022/10/06 01:20:50;;;;;;;5.67;2.63;;;18.60;1.00;;;;;;5056471;28;20996;-55
2022/10/06 01:23:16;;;;;;;4.53;2.97;;;18.50;1.00;;;;;;5048695;28;20799;-52
2022/10/06 01:25:43;;;;;;;4.10;3.10;;;18.50;1.00;;;;;;5051535;28;20995;-53
2022/10/06 01:28:11;;;;;;;4.33;3.10;;;18.40;1.00;;;;;;5069690;28;20465;-55
2022/10/06 01:30:44;;;;;;;2.90;2.57;;;18.20;1.00;;;;;;5047850;28;20416;-56
2022/10/06 01:33:11;;;;;;;5.60;2.70;;;18.10;1.00;;;;;;5058545;28;20423;-54
2022/10/06 01:35:37;;;;;;;3.00;2.80;;;18.00;1.00;;;;;;5064044;28;20422;-55
2022/10/06 01:38:03;;;;;;;4.87;3.37;;;17.80;1.00;;;;;;5044898;28;20436;-54
2022/10/06 01:40:29;;;;;;;3.50;2.90;;;17.70;1.00;;;;;;5043621;28;20196;-53
2022/10/06 01:42:55;;;;;;;3.60;2.67;;;17.60;1.00;;;;;;5047803;28;20808;-55
2022/10/06 01:45:20;;;;;;;3.70;2.73;;;17.50;1.00;;;;;;5045745;28;20235;-53
2022/10/06 01:47:46;;;;;;;3.30;3.00;;;17.40;1.00;;;;;;5047185;28;20952;-56
2022/10/06 01:50:13;;;;;;;3.50;2.93;;;17.30;1.00;;;;;;5043426;28;20669;-54
2022/10/06 01:52:38;;;;;;;3.90;3.00;;;17.30;1.00;;;;;;5048402;28;20430;-54
2022/10/06 01:55:04;;;;;;;5.07;2.80;;;17.20;1.00;;;;;;5043399;28;20474;-53
2022/10/06 01:57:30;;;;;;;3.50;2.90;;;17.20;1.00;;;;;;5049359;28;20277;-55
2022/10/06 01:59:56;;;;;;;4.70;2.90;;;17.10;1.00;;;;;;5043850;28;20510;-54
2022/10/06 02:02:21;;;;;;;3.50;2.80;;;17.00;1.00;;;;;;5047546;28;20351;-55
2022/10/06 02:04:47;;;;;;;7.63;2.80;;;16.80;1.00;;;;;;5050313;28;20211;-54
2022/10/06 02:07:13;;;;;;;3.23;2.93;;;16.70;1.00;;;;;;5046936;28;20446;-54
2022/10/06 02:09:38;;;;;;;3.73;2.80;;;16.80;1.00;;;;;;5049094;28;20213;-53
2022/10/06 02:12:04;;;;;;;6.10;3.30;;;16.80;1.00;;;;;;5047807;28;20188;-55
2022/10/06 02:14:31;;;;;;;4.00;3.50;;;16.80;1.00;;;;;;5046342;28;20187;-52
2022/10/06 02:16:57;;;;;;;3.17;2.77;;;16.80;1.00;;;;;;5047061;28;20841;-54
2022/10/06 02:19:22;;;;;;;2.93;2.67;;;16.70;1.00;;;;;;5047254;28;20455;-53
2022/10/06 02:21:48;;;;;;;4.63;2.90;;;16.60;1.00;;;;;;5049626;28;20229;-54
2022/10/06 02:24:13;;;;;;;6.20;4.50;;;16.50;1.00;;;;;;5043821;28;20181;-56
2022/10/06 02:26:39;;;;;;;3.50;3.20;;;16.30;1.00;;;;;;5047681;28;20195;-55
2022/10/06 02:29:04;;;;;;;5.80;3.50;;;16.40;1.00;;;;;;5046993;28;20222;-53
2022/10/06 02:31:30;;;;;;;8.03;3.50;;;16.30;1.00;;;;;;5041948;28;20184;-54
2022/10/06 02:33:56;;;;;;;4.30;3.70;;;16.30;1.00;;;;;;5047918;28;20189;-54
2022/10/06 02:36:22;;;;;;;3.30;3.00;;;16.20;1.00;;;;;;5049362;28;20181;-56
2022/10/06 02:38:48;;;;;;;5.73;3.87;;;16.10;1.00;;;;;;5053696;28;20422;-55
2022/10/06 02:41:13;;;;;;;3.63;3.33;;;16.10;1.00;;;;;;5051664;28;20524;-55
2022/10/06 02:43:39;;;;;;;4.27;3.57;;;16.10;1.00;;;;;;5051241;28;20845;-52
2022/10/06 02:46:13;;;;;;;5.20;3.87;;;16.10;1.00;;;;;;5051176;28;20200;-53
2022/10/06 02:48:39;;;;;;;6.47;3.60;;;16.10;1.00;;;;;;5044371;28;20214;-52
2022/10/06 02:51:16;;;;;;;7.00;3.77;;;16.10;1.00;;;;;;5048566;28;20498;-55
2022/10/06 02:53:43;;;;;;;3.60;3.10;;;16.10;1.00;;;;;;5053630;28;20426;-53
2022/10/06 02:56:14;;;;;;;5.10;3.20;;;16.10;1.00;;;;;;5051093;28;20458;-55
2022/10/06 02:58:41;;;;;;;4.03;2.93;;;16.20;1.00;;;;;;5047499;28;20449;-54
2022/10/06 03:01:15;;;;;;;6.40;4.00;;;16.30;1.00;;;;;;5044653;28;20954;-56
2022/10/06 03:03:41;;;;;;;3.60;3.30;;;16.40;1.00;;;;;;5049078;28;20434;-55
2022/10/06 03:06:23;;;;;;;3.57;3.27;;;16.50;1.00;;;;;;5049612;28;20451;-55
2022/10/06 03:08:53;;;;;;;4.13;3.73;;;16.60;1.00;;;;;;5050447;28;20995;-56
2022/10/06 03:11:21;;;;;;;5.10;3.80;;;16.50;1.00;;;;;;5051085;28;20839;-54
2022/10/06 03:13:48;;;;;;;6.60;3.10;;;16.50;1.00;;;;;;5046894;28;20852;-55
2022/10/06 03:16:16;;;;;;;3.30;3.00;;;16.60;1.00;;;;;;5048189;28;20412;-54
2022/10/06 03:18:49;;;;;;;3.43;3.13;;;16.80;1.00;;;;;;5051829;28;20449;-55
2022/10/06 03:21:20;;;;;;;3.27;2.87;;;17.10;1.00;;;;;;5049006;28;20454;-57
2022/10/06 03:23:47;;;;;;;5.30;3.10;;;17.40;1.00;;;;;;5048050;28;20486;-54
2022/10/06 03:26:14;;;;;;;3.30;2.60;;;17.40;1.00;;;;;;5047804;28;20923;-53
2022/10/06 03:28:40;;;;;;;5.53;3.03;;;17.60;1.00;;;;;;5052429;28;20523;-55
2022/10/06 03:31:06;;;;;;;3.10;2.90;;;17.60;1.00;;;;;;5045502;28;20465;-55
2022/10/06 03:33:33;;;;;;;3.70;2.60;;;17.60;1.00;;;;;;5048318;28;20474;-54
2022/10/06 03:36:04;;;;;;;7.13;2.60;;;17.70;1.00;;;;;;5048820;28;20422;-54
2022/10/06 03:38:34;;;;;;;5.50;3.07;;;17.80;1.00;;;;;;5047497;28;20454;-55
2022/10/06 03:41:27;;;;;;;4.70;2.60;;;17.80;1.00;;;;;;5048036;28;20963;-54
2022/10/06 03:43:54;;;;;;;3.93;2.87;;;17.70;1.00;;;;;;5047176;28;20477;-56
2022/10/06 03:46:22;;;;;;;8.07;3.23;;;17.80;1.00;;;;;;5051575;28;20444;-53
2022/10/06 03:48:49;;;;;;;3.20;2.90;;;17.60;1.00;;;;;;5048994;28;20819;-53
2022/10/06 03:51:24;;;;;;;3.20;2.60;;;17.60;1.00;;;;;;5051160;28;21008;-56
2022/10/06 03:53:51;;;;;;;2.93;2.63;;;17.50;1.00;;;;;;5046559;28;20415;-55
2022/10/06 03:56:19;;;;;;;5.43;2.77;;;17.50;1.00;;;;;;5050459;28;20816;-56
2022/10/06 03:58:49;;;;;;;3.30;2.33;;;17.60;1.00;;;;;;5052191;28;20440;-54
2022/10/06 04:01:24;;;;;;;3.00;2.80;;;17.40;1.00;;;;;;5047028;28;20940;-55
2022/10/06 04:03:51;;;;;;;2.80;2.60;;;17.10;1.00;;;;;;5050990;28;20203;-58
2022/10/06 04:06:18;;;;;;;3.03;2.83;;;17.00;1.00;;;;;;5052250;28;20447;-54
2022/10/06 04:08:46;;;;;;;3.33;3.03;;;17.00;1.00;;;;;;5060310;28;21062;-56
2022/10/06 04:11:21;;;;;;;4.00;3.10;;;16.90;1.00;;;;;;5050820;28;20448;-53
2022/10/06 04:13:52;;;;;;;6.53;3.73;;;16.80;1.00;;;;;;5048831;28;20429;-57
2022/10/06 04:16:25;;;;;;;3.93;3.63;;;16.90;1.00;;;;;;5050389;28;20458;-54
2022/10/06 04:18:53;;;;;;;3.93;3.50;;;16.80;1.00;;;;;;5050669;28;20459;-56
2022/10/06 04:21:19;;;;;;;4.50;2.90;;;16.70;1.00;;;;;;5050761;28;20513;-55
2022/10/06 04:23:45;;;;;;;5.00;3.33;;;16.60;1.00;;;;;;5049261;28;21267;-54
2022/10/06 04:26:13;;;;;;;4.00;3.60;;;16.40;1.00;;;;;;5051198;28;20702;-53
2022/10/06 04:28:40;;;;;;;5.80;4.57;;;16.30;1.00;;;;;;5050432;28;20548;-55
2022/10/06 04:31:12;;;;;;;5.40;3.57;;;16.20;1.00;;;;;;5050435;28;21092;-54
2022/10/06 04:33:38;;;;;;;7.70;2.63;;;16.40;1.00;;;;;;5051624;28;20788;-56
2022/10/06 04:36:05;;;;;;;5.23;3.40;;;16.40;1.00;;;;;;5047614;28;20426;-54
2022/10/06 04:38:33;;;;;;;5.50;3.10;;;16.40;1.00;;;;;;5047294;28;20198;-56
2022/10/06 04:41:07;;;;;;;4.00;3.13;;;16.40;1.00;;;;;;5045108;28;20964;-54
2022/10/06 04:43:34;;;;;;;6.83;3.80;;;16.30;1.00;;;;;;5045919;28;20460;-55
2022/10/06 04:46:00;;;;;;;5.13;4.23;;;16.40;1.00;;;;;;5046893;28;20428;-54
2022/10/06 04:48:27;;;;;;;3.20;2.90;;;16.30;1.00;;;;;;5047992;28;20504;-56
2022/10/06 04:51:05;;;;;;;6.87;3.77;;;16.20;1.00;;;;;;5045404;28;20823;-57
2022/10/06 04:53:31;;;;;;;4.43;3.80;;;16.20;1.00;;;;;;5055553;28;20456;-56
2022/10/06 04:56:14;;;;;;;4.23;3.30;;;16.40;1.00;;;;;;5049365;28;20449;-55
2022/10/06 04:58:43;;;;;;;4.13;3.67;;;16.40;1.00;;;;;;5050658;28;20466;-53
2022/10/06 05:01:20;;;;;;;10.47;4.80;;;16.40;1.00;;;;;;5045722;28;20428;-56
2022/10/06 05:03:47;;;;;;;5.90;4.50;;;16.50;1.00;;;;;;5047730;28;20441;-55
2022/10/06 05:06:26;;;;;;;5.73;3.90;;;16.40;1.00;;;;;;5045297;28;20519;-53
2022/10/06 05:08:54;;;;;;;4.57;3.80;;;16.40;1.00;;;;;;5048489;28;20534;-53
2022/10/06 05:11:20;;;;;;;3.80;3.47;;;16.50;1.00;;;;;;5044066;28;20473;-55
2022/10/06 05:13:46;;;;;;;7.10;4.07;;;16.70;1.00;;;;;;5046832;28;20814;-52
2022/10/06 05:16:14;;;;;;;9.77;4.37;;;16.70;1.00;;;;;;5047166;28;20458;-54
2022/10/06 05:18:40;;;;;;;4.00;3.40;;;16.80;1.00;;;;;;5046800;28;20457;-53
2022/10/06 05:21:10;;;;;;;3.23;2.70;;;16.90;1.00;;;;;;5048984;28;20478;-55
2022/10/06 05:23:37;;;;;;;4.97;3.20;;;17.10;1.00;;;;;;5047261;28;20475;-56
2022/10/06 05:26:03;;;;;;;2.70;2.40;;;17.30;1.00;;;;;;5046572;28;20502;-53
2022/10/06 05:28:30;;;;;;;2.70;2.10;;;17.80;1.00;;;;;;5060781;28;20906;-53
2022/10/06 05:31:04;;;;;;;3.40;2.47;;;18.00;1.00;;;;;;5046426;28;20415;-55
2022/10/06 05:33:33;;;;;;;3.63;2.57;;;18.30;1.00;;;;;;5045808;28;20962;-57
2022/10/06 05:36:04;;;;;;;4.80;2.97;;;18.40;1.00;;;;;;5047961;28;20471;-55
2022/10/06 05:38:29;;;;;;;2.47;2.27;;;18.60;1.00;;;;;;5050248;28;20445;-55
2022/10/06 05:41:16;;;;;;;4.23;2.60;;;18.60;1.00;;;;;;5048165;28;20428;-55
2022/10/06 05:43:42;;;;;;;3.93;2.83;;;18.60;1.00;;;;;;5045469;28;20220;-55
2022/10/06 05:46:18;;;;;;;2.70;2.40;;;18.70;1.00;;;;;;5048119;28;20423;-53
2022/10/06 05:48:46;;;;;;;4.53;2.47;;;18.50;1.00;;;;;;5048720;28;20214;-54
2022/10/06 05:51:12;;;;;;;3.20;2.60;;;18.60;1.00;;;;;;5047242;28;20447;-54
2022/10/06 05:53:38;;;;;;;3.63;2.47;;;18.60;1.00;;;;;;5050318;28;20629;-54
2022/10/06 05:56:10;;;;;;;2.77;2.57;;;18.70;1.00;;;;;;5049432;28;20530;-55
2022/10/06 05:58:37;;;;;;;5.80;2.50;;;18.70;1.00;;;;;;5050343;28;20272;-54
2022/10/06 06:01:14;;;;;;;5.07;2.50;;;18.70;1.00;;;;;;5044639;28;20427;-54
2022/10/06 06:03:41;;;;;;;4.50;2.83;;;18.70;1.00;;;;;;5049882;28;20442;-54
2022/10/06 06:06:22;;;;;;;3.40;2.33;;;18.70;1.00;;;;;;5048564;28;20503;-54
2022/10/06 06:08:52;;;;;;;3.53;2.23;;;18.80;1.00;;;;;;5042937;28;20518;-55
2022/10/06 06:11:18;;;;;;;2.87;2.60;;;18.80;1.00;;;;;;5046430;28;20421;-53
2022/10/06 06:13:43;;;;;;;5.00;2.77;;;18.80;1.00;;;;;;5051201;28;20442;-56
2022/10/06 06:16:14;;;;;;;2.93;2.70;;;18.80;1.00;;;;;;5050422;28;20445;-56
2022/10/06 06:18:40;;;;;;;11.70;4.53;;;18.80;1.00;;;;;;5049267;28;20201;-53
2022/10/06 06:21:07;;;;;;;4.93;3.50;;;18.70;1.00;;;;;;5050819;28;20455;-56
2022/10/06 06:23:45;;;;;;;4.37;2.80;;;18.70;1.00;;;;;;5050317;28;20705;-54
2022/10/06 06:26:17;;;;;;;3.63;2.37;;;19.20;1.00;;;;;;5049890;28;20521;-54
2022/10/06 06:28:45;;;;;;;4.20;1.23;;;18.20;1.00;;;;;;5053726;28;20441;-54
2022/10/06 06:31:28;;;;;;;1.43;0.60;;;17.80;1.00;;;;;;5050811;28;20428;-55
2022/10/06 06:33:56;;;;;;;1.17;0.83;;;17.40;1.00;;;;;;5052065;28;20441;-55
2022/10/06 06:36:28;;;;;;;0.87;0.67;;;17.00;1.00;;;;;;5052000;28;20511;-55
2022/10/06 06:38:56;;;;;;;0.90;0.80;;;17.00;1.00;;;;;;5053751;28;20424;-55
2022/10/06 06:41:27;;;;;;;1.53;0.90;;;16.90;1.00;;;;;;5054033;28;20886;-55
2022/10/06 06:43:53;;;;;;;2.57;1.27;;;16.70;1.00;;;;;;5053117;28;20525;-55
2022/10/06 06:46:23;;;;;;;1.50;0.73;;;16.70;1.00;;;;;;5053033;28;20435;-56
2022/10/06 06:48:53;;;;;;;1.30;1.07;;;16.30;1.00;;;;;;5057274;28;20995;-53
2022/10/06 06:51:21;;;;;;;1.43;0.87;;;16.20;1.00;;;;;;5051725;28;20873;-56
2022/10/06 06:53:47;;;;;;;0.70;0.70;;;15.90;1.00;;;;;;5050904;28;20466;-55
2022/10/06 06:56:13;;;;;;;2.20;0.67;;;15.60;1.00;;;;;;5052570;28;20419;-56
2022/10/06 06:58:40;;;;;;;2.43;0.70;;;15.50;1.00;;;;;;5053283;28;20179;-54
2022/10/06 07:01:12;;;;;;;3.03;1.07;;;15.50;1.00;;;;;;5045177;28;20684;-56
2022/10/06 07:03:42;;;;;;;3.87;0.80;;;15.40;1.00;;;;;;5049789;28;20445;-54
2022/10/06 07:06:10;;;;;;;2.47;0.57;;;15.30;1.00;;;;;;5048919;28;20516;-53
2022/10/06 07:08:38;;;;;;;0.73;0.70;;;15.10;1.00;;;;;;5052048;28;20501;-56
2022/10/06 07:11:20;;;;;;;2.67;0.83;;;15.00;1.00;;;;;;5053017;28;20420;-55
2022/10/06 07:13:50;;;;;;;1.27;1.10;;;15.10;1.00;;;;;;5052263;28;20957;-53
2022/10/06 07:25:06;;;;;;;2.10;0.80;;;15.00;1.00;;;;;;5051668;28;20496;-54
2022/10/06 07:27:41;;;;;;;1.00;0.80;;;15.00;1.00;;;;;;5052003;28;20521;-57
2022/10/06 07:30:11;;;;;;;1.57;0.90;;;15.10;1.00;;;;;;5051862;28;20848;-55
2022/10/06 07:32:37;;;;;;;1.80;0.90;;;15.10;1.00;;;;;;5051897;28;20436;-56
2022/10/06 07:35:05;;;;;;;3.97;1.07;;;15.00;1.00;;;;;;5050517;28;20489;-55
2022/10/06 07:37:33;;;;;;;1.97;0.70;;;14.90;1.00;;;;;;5051603;28;20481;-53
2022/10/06 07:39:59;;;;;;;1.83;0.90;;;14.90;1.00;;;;;;5049032;28;20458;-54
2022/10/06 07:42:25;;;;;;;1.57;1.07;;;15.20;1.00;;;;;;5051546;28;20510;-54
2022/10/06 07:47:38;;;;;;;1.60;1.20;;;15.40;1.00;;;;;;5052135;28;20203;-54
2022/10/06 07:50:05;;;;;;;2.60;0.90;;;15.50;1.00;;;;;;5051384;28;20435;-54
2022/10/06 07:52:31;;;;;;;5.23;1.00;;;15.50;1.00;;;;;;5050250;28;20974;-56
2022/10/06 07:54:57;;;;;;;3.80;1.13;;;15.60;1.00;;;;;;5051648;28;20492;-54
2022/10/06 07:57:25;;;;;;;5.80;1.10;;;15.70;1.00;;;;;;5051199;28;20643;-54
2022/10/06 07:59:51;;;;;;;4.00;1.10;;;15.80;1.00;;;;;;5051350;28;20183;-55
2022/10/06 08:02:18;;;;;;;1.77;0.80;;;15.90;1.00;;;;;;5049798;28;20973;-54
2022/10/06 08:04:43;;;;;;;4.23;1.03;;;16.00;1.00;;;;;;5051014;28;20441;-55
2022/10/06 08:07:11;;;;;;;3.23;1.20;;;16.00;1.00;;;;;;5050258;28;20450;-54
2022/10/06 08:09:37;;;;;;;7.33;1.60;;;16.10;1.00;;;;;;5046933;28;20294;-54
2022/10/06 08:12:31;;;;;;;1.90;0.77;;;16.10;1.00;;;;;;5050886;28;20515;-55
2022/10/06 08:14:48;;;;;;;2.67;1.57;;;16.10;1.00;;;;;;5051166;28;20734;-55
2022/10/06 08:17:13;;;;;;;4.20;1.27;;;16.00;1.00;;;;;;5050811;28;20433;-54
2022/10/06 08:19:39;;;;;;;3.40;1.10;;;16.00;1.00;;;;;;5050994;28;20269;-57
2022/10/06 08:22:04;;;;;;;2.87;0.90;;;16.00;1.00;;;;;;5050658;28;20215;-57
2022/10/06 08:24:30;;;;;;;1.83;1.27;;;16.30;1.00;;;;;;5050649;28;20216;-54
2022/10/06 08:26:56;;;;;;;2.90;1.20;;;16.40;1.00;;;;;;5051043;28;20181;-56
2022/10/06 08:29:21;;;;;;;5.20;3.07;;;16.60;1.00;;;;;;5050662;28;20808;-54
2022/10/06 08:31:47;;;;;;;5.03;1.40;;;16.30;1.00;;;;;;5050609;28;20182;-55
2022/10/06 08:34:12;;;;;;;1.60;1.20;;;16.90;1.00;;;;;;5049067;28;20206;-55
2022/10/06 08:36:38;;;;;;;2.10;1.43;;;17.10;1.00;;;;;;5050025;28;20209;-57
2022/10/06 08:39:05;;;;;;;2.50;1.40;;;17.30;1.00;;;;;;5050532;28;20270;-57
2022/10/06 08:41:31;;;;;;;3.47;1.73;;;17.50;1.00;;;;;;5050208;28;20185;-55
2022/10/06 08:44:04;;;;;;;3.33;1.90;;;17.60;1.00;;;;;;5050088;28;20455;-54
2022/10/06 08:46:45;;;;;;;2.70;1.40;;;17.60;1.00;;;;;;5050791;28;20249;-52
2022/10/06 08:49:24;;;;;;;1.67;1.10;;;17.70;1.00;;;;;;5050393;28;20475;-53
2022/10/06 08:52:25;;;;;;;4.00;0.90;;;17.80;1.00;;;;;;5046146;28;20787;-53
2022/10/06 08:55:00;;;;;;;1.73;0.93;;;18.00;1.00;;;;;;5050872;28;20438;-54
2022/10/06 08:58:03;;;;;;;2.70;1.20;;;18.00;1.00;;;;;;5049334;28;20538;-55
2022/10/06 09:00:31;;;;;;;2.70;1.00;;;18.10;1.00;;;;;;5050160;28;20414;-57
2022/10/06 09:02:58;;;;;;;3.90;1.27;;;18.00;1.00;;;;;;5050539;28;20440;-54
2022/10/06 09:05:27;;;;;;;1.70;1.50;;;18.20;1.00;;;;;;5049510;28;20411;-53
2022/10/06 09:08:31;;;;;;;3.90;1.23;;;18.30;1.00;;;;;;5063077;28;20411;-55
2022/10/06 09:11:27;;;;;;;3.10;1.23;;;18.20;1.00;;;;;;5069098;28;20459;-56
2022/10/06 09:14:18;;;;;;;2.53;1.10;;;18.20;1.00;;;;;;5068220;28;20442;-56
2022/10/06 09:16:49;;;;;;;2.13;1.30;;;18.00;1.00;;;;;;5069873;28;20443;-55
2022/10/06 09:19:25;;;;;;;1.53;1.10;;;18.00;1.00;;;;;;5049165;28;20481;-53
2022/10/06 09:21:52;;;;;;;1.20;1.10;;;18.20;1.00;;;;;;5062080;28;20487;-55
2022/10/06 09:24:44;;;;;;;4.50;1.47;;;18.40;1.00;;;;;;5069752;28;20467;-55
2022/10/06 09:27:20;;;;;;;1.23;1.03;;;18.50;1.00;;;;;;5069887;28;20416;-54
2022/10/06 09:29:49;;;;;;;1.83;1.10;;;18.40;1.00;;;;;;5069735;28;20471;-54
2022/10/06 09:32:17;;;;;;;3.97;1.67;;;18.40;1.00;;;;;;5063240;28;20440;-56
2022/10/06 09:34:54;;;;;;;2.10;1.00;;;18.40;1.00;;;;;;5049451;28;20453;-53
2022/10/06 09:37:19;;;;;;;1.10;0.93;;;18.40;1.00;;;;;;5049765;28;20427;-57
2022/10/06 09:39:49;;;;;;;6.70;1.10;;;18.50;1.00;;;;;;5049332;28;20446;-57
2022/10/06 09:42:34;;;;;;;4.17;1.40;;;18.40;1.00;;;;;;5049064;28;20193;-54
2022/10/06 09:45:06;;;;;;;5.87;1.23;;;18.40;1.00;;;;;;5045472;28;20469;-56
2022/10/06 09:47:45;;;;;;;5.40;1.20;;;18.60;1.00;;;;;;5049288;28;20443;-56
2022/10/06 09:50:32;;;;;;;2.80;1.20;;;18.80;1.00;;;;;;5049401;28;20463;-57
2022/10/06 09:52:59;;;;;;;2.67;1.10;;;19.00;1.00;;;;;;5052926;28;20441;-55
2022/10/06 09:55:28;;;;;;;5.40;1.90;;;18.70;1.00;;;;;;5068329;28;20528;-56
2022/10/06 09:57:56;;;;;;;3.27;1.03;;;18.70;1.00;;;;;;5069384;28;20887;-53
2022/10/06 10:00:29;;;;;;;5.30;1.37;;;18.60;1.00;;;;;;5069576;28;21198;-53
2022/10/06 10:02:59;;;;;;;2.50;1.33;;;18.60;1.00;;;;;;5050114;28;20457;-54
2022/10/06 10:05:26;;;;;;;1.80;1.10;;;18.70;1.00;;;;;;5049522;28;20451;-55
2022/10/06 10:08:17;;;;;;;3.13;1.43;;;18.70;1.00;;;;;;5048453;28;20530;-54
2022/10/06 10:10:43;;;;;;;2.63;1.10;;;18.60;1.00;;;;;;5049079;28;20776;-57
2022/10/06 10:13:25;;;;;;;3.20;1.40;;;19.20;1.00;;;;;;5049668;28;20413;-55
2022/10/06 10:15:58;;;;;;;3.90;1.70;;;19.20;1.00;;;;;;5048957;28;20632;-55
2022/10/06 10:18:29;;;;;;;8.70;2.20;;;19.10;1.00;;;;;;5049470;28;20441;-53
2022/10/06 10:21:04;;;;;;;4.60;1.40;;;19.40;1.00;;;;;;5049205;28;20423;-55
2022/10/06 10:23:32;;;;;;;3.60;1.17;;;19.20;1.00;;;;;;5049081;28;20603;-55
2022/10/06 10:26:08;;;;;;;4.63;2.03;;;18.90;1.00;;;;;;5048713;28;20451;-53
2022/10/06 10:28:41;;;;;;;3.43;1.93;;;18.60;1.00;;;;;;5048926;28;20821;-57
2022/10/06 10:31:19;;;;;;;3.00;2.00;;;18.60;1.00;;;;;;5048887;28;20438;-56
2022/10/06 10:33:55;;;;;;;6.37;2.77;;;19.00;1.00;;;;;;5049207;28;20455;-55
2022/10/06 10:36:34;;;;;;;5.10;1.80;;;19.50;1.00;;;;;;5045100;28;20832;-55
2022/10/06 10:39:00;;;;;;;4.53;1.90;;;19.70;1.00;;;;;;5048346;28;20440;-55
2022/10/06 10:41:33;;;;;;;2.77;1.40;;;19.90;1.00;;;;;;5049124;28;20410;-54
2022/10/06 10:44:12;;;;;;;3.90;1.67;;;19.70;1.00;;;;;;5048902;28;20564;-55
2022/10/06 10:46:50;;;;;;;4.10;1.47;;;19.40;1.00;;;;;;5049203;28;20455;-55
2022/10/06 10:49:24;;;;;;;3.77;1.77;;;19.10;1.00;;;;;;5048898;28;20465;-54
2022/10/06 10:52:01;;;;;;;2.03;1.13;;;18.90;1.00;;;;;;5048499;28;20422;-54
2022/10/06 10:54:43;;;;;;;2.03;1.47;;;18.50;1.00;;;;;;5049096;28;20438;-55
2022/10/06 10:57:15;;;;;;;3.87;1.53;;;18.20;1.00;;;;;;5063050;28;20903;-55
2022/10/06 11:00:06;;;;;;;5.47;2.30;;;18.50;1.00;;;;;;5052022;28;20570;-54
2022/10/06 11:02:34;;;;;;;2.77;1.67;;;18.70;1.00;;;;;;5046605;28;20416;-56
2022/10/06 11:05:13;;;;;;;4.40;2.07;;;18.70;1.00;;;;;;5053004;28;20417;-55
2022/10/06 11:07:39;;;;;;;2.77;1.37;;;18.80;1.00;;;;;;5052150;28;20938;-55
2022/10/06 11:10:25;;;;;;;4.63;1.67;;;18.90;1.00;;;;;;5052553;28;20462;-56
2022/10/06 11:13:30;;;;;;;4.27;1.57;;;19.00;1.00;;;;;;5052209;28;20185;-55
2022/10/06 11:16:10;;;;;;;6.20;2.10;;;18.80;1.00;;;;;;5052469;28;20408;-55
2022/10/06 11:18:45;;;;;;;5.17;1.63;;;18.50;1.00;;;;;;5048597;28;20498;-55
2022/10/06 11:21:14;;;;;;;3.17;1.80;;;18.30;1.00;;;;;;5052093;28;20434;-56
2022/10/06 11:24:04;;;;;;;3.77;1.40;;;18.20;1.00;;;;;;5072299;28;20411;-52
2022/10/06 11:26:47;;;;;;;3.00;1.27;;;18.30;1.00;;;;;;5060871;28;20444;-55
2022/10/06 11:29:35;;;;;;;5.50;4.20;;;18.40;1.00;;;;;;5050546;28;20426;-56
2022/10/06 11:32:07;;;;;;;6.90;1.90;;;18.60;1.00;;;;;;5072253;28;20930;-55
2022/10/06 11:34:32;;;;;;;2.90;1.67;;;18.90;1.00;;;;;;5072134;28;20451;-56
2022/10/06 11:37:05;;;;;;;3.17;1.30;;;18.90;1.00;;;;;;5059956;28;20926;-54
2022/10/06 11:39:45;;;;;;;2.70;1.10;;;18.90;1.00;;;;;;5054170;28;20534;-55
2022/10/06 11:42:35;;;;;;;3.63;1.10;;;18.70;1.00;;;;;;5071892;28;20445;-56
2022/10/06 11:45:30;;;;;;;2.37;1.50;;;19.00;1.00;;;;;;5058923;28;20549;-54
2022/10/06 11:48:14;;;;;;;6.63;1.70;;;19.00;1.00;;;;;;5047910;28;20858;-55
2022/10/06 11:50:41;;;;;;;3.50;1.43;;;19.50;1.00;;;;;;5062334;28;20519;-56
2022/10/06 11:53:35;;;;;;;4.30;1.10;;;19.50;1.00;;;;;;5071826;28;20433;-53
2022/10/06 11:56:16;;;;;;;3.03;1.30;;;19.70;1.00;;;;;;5071508;28;20479;-54
2022/10/06 11:58:50;;;;;;;3.20;1.37;;;19.90;1.00;;;;;;5051964;28;20956;-57
2022/10/06 12:01:32;;;;;;;2.30;1.27;;;20.00;1.00;;;;;;5051378;28;20915;-53
2022/10/06 12:04:09;;;;;;;2.40;1.10;;;19.80;1.00;;;;;;5051838;28;20950;-54
2022/10/06 12:06:47;;;;;;;3.63;1.30;;;20.00;1.00;;;;;;5051270;28;20429;-54
2022/10/06 12:09:24;;;;;;;4.67;1.43;;;20.30;1.00;;;;;;5051038;28;20473;-56
2022/10/06 12:11:52;;;;;;;5.43;1.80;;;20.50;1.00;;;;;;5049555;28;20514;-57
2022/10/06 12:14:30;;;;;;;4.63;1.50;;;20.40;1.00;;;;;;5051312;28;20461;-55
2022/10/06 12:17:02;;;;;;;3.40;1.50;;;20.60;1.00;;;;;;5050804;28;21007;-57
2022/10/06 12:19:49;;;;;;;6.43;1.83;;;20.30;1.00;;;;;;5051126;28;21011;-52
2022/10/06 12:22:24;;;;;;;5.23;1.10;;;20.00;1.00;;;;;;5051185;28;20434;-56
2022/10/06 12:24:57;;;;;;;2.17;1.20;;;19.60;1.00;;;;;;5050520;28;20428;-56
2022/10/06 12:27:25;;;;;;;3.70;1.30;;;19.50;1.00;;;;;;5052552;28;20427;-55
2022/10/06 12:30:00;;;;;;;2.70;1.60;;;19.50;1.00;;;;;;5050350;28;20503;-56
2022/10/06 12:32:45;;;;;;;5.20;1.30;;;19.20;1.00;;;;;;5049583;28;20441;-55
2022/10/06 12:35:23;;;;;;;6.10;1.70;;;19.20;1.00;;;;;;5055972;28;20467;-53
2022/10/06 12:37:55;;;;;;;2.40;1.10;;;19.40;1.00;;;;;;5069317;28;20514;-53
2022/10/06 12:40:45;;;;;;;4.73;1.60;;;19.80;1.00;;;;;;5070557;28;20418;-52
2022/10/06 12:43:16;;;;;;;2.80;1.60;;;20.00;1.00;;;;;;5070414;28;21046;-54
2022/10/06 12:45:51;;;;;;;4.20;1.40;;;20.30;1.00;;;;;;5068891;28;20431;-54
2022/10/06 12:48:39;;;;;;;4.40;1.00;;;20.10;1.00;;;;;;5062371;28;20413;-56
2022/10/06 12:51:17;;;;;;;4.70;1.63;;;20.10;1.00;;;;;;5048945;28;20504;-56
2022/10/06 12:54:01;;;;;;;3.87;0.83;;;20.30;1.00;;;;;;5048992;28;20517;-56
2022/10/06 12:56:30;;;;;;;3.23;1.53;;;20.20;1.00;;;;;;5056578;28;20850;-56
2022/10/06 12:58:56;;;;;;;5.03;1.30;;;20.20;1.00;;;;;;5052852;28;20440;-52
2022/10/06 13:01:24;;;;;;;2.37;1.13;;;20.40;1.00;;;;;;5070210;28;20439;-56
2022/10/06 13:03:51;;;;;;;2.70;1.30;;;20.30;1.00;;;;;;5069479;28;21025;-55
2022/10/06 13:06:22;;;;;;;3.87;1.40;;;20.60;1.00;;;;;;5050609;28;20443;-55
2022/10/06 13:09:11;;;;;;;4.93;1.67;;;20.30;1.00;;;;;;5049991;28;20465;-56
2022/10/06 13:11:37;;;;;;;5.63;1.40;;;20.00;1.00;;;;;;5049911;28;20758;-54
2022/10/06 13:14:12;;;;;;;4.23;1.30;;;20.00;1.00;;;;;;5068549;28;20429;-52
2022/10/06 13:16:46;;;;;;;5.27;1.63;;;20.00;1.00;;;;;;5069919;28;20273;-55
2022/10/06 13:19:16;;;;;;;3.83;1.37;;;20.10;1.00;;;;;;5069863;28;20895;-52
2022/10/06 13:21:42;;;;;;;3.43;1.10;;;20.20;1.00;;;;;;5069215;28;20461;-56
2022/10/06 13:24:19;;;;;;;6.17;1.83;;;20.10;1.00;;;;;;5069503;28;20411;-54
2022/10/06 13:26:45;;;;;;;4.23;1.73;;;20.10;1.00;;;;;;5069713;28;20432;-56
2022/10/06 13:29:20;;;;;;;4.90;1.30;;;20.20;1.00;;;;;;5062558;28;20567;-54
2022/10/06 13:31:51;;;;;;;5.37;1.33;;;20.10;1.00;;;;;;5049427;28;20472;-53